Time;durP1;ratioP1;P1;durP2;ratioP2;P2;SDS_P1;SDS_P2;PMS_P1;PMS_P2;Temp;Humidity;BMP_temperature;BMP_pressure;BME280_temperature;BME280_humidity;BME280_pressure;Samples;Min_cycle;Max_cycle;Signal;HPM_P1;HPM_P2
2022/08/28 00:01:00;;;;;;;0.73;0.73;;;;;;;17.31;77.97;100435.75;5127059;28;20050;-68
2022/08/28 00:03:26;;;;;;;0.30;0.30;;;;;;;17.27;78.35;100428.06;5126531;28;20031;-67
2022/08/28 00:05:52;;;;;;;5.88;2.17;;;;;;;17.22;78.66;100433.47;5127183;28;20034;-67
2022/08/28 00:08:18;;;;;;;1.33;1.23;;;;;;;17.14;78.61;100420.59;5108734;28;20035;-67
2022/08/28 00:10:46;;;;;;;0.30;0.30;;;;;;;17.15;78.83;100430.22;5126980;28;20023;-67
2022/08/28 00:13:17;;;;;;;0.28;0.28;;;;;;;17.14;78.71;100427.66;5126754;28;20024;-67
2022/08/28 00:15:44;;;;;;;0.30;0.30;;;;;;;17.07;78.87;100421.72;5127116;28;20035;-66
2022/08/28 00:18:10;;;;;;;0.55;0.55;;;;;;;17.10;79.22;100434.75;5126415;28;20030;-66
2022/08/28 00:20:37;;;;;;;0.30;0.30;;;;;;;17.07;78.94;100433.06;5126892;28;20023;-66
2022/08/28 00:23:03;;;;;;;0.30;0.30;;;;;;;17.06;79.15;100431.34;5126491;28;20494;-65
2022/08/28 00:25:29;;;;;;;1.15;1.05;;;;;;;17.07;79.33;100437.47;5126763;28;20027;-67
2022/08/28 00:27:57;;;;;;;0.43;0.43;;;;;;;17.05;79.59;100436.66;5126653;28;20023;-66
2022/08/28 00:30:47;;;;;;;0.30;0.30;;;;;;;17.01;79.60;100437.69;5126737;28;20026;-68
2022/08/28 00:33:23;;;;;;;0.30;0.30;;;;;;;16.98;79.52;100439.50;5126290;28;20022;-67
2022/08/28 00:35:49;;;;;;;7.22;1.95;;;;;;;16.94;79.86;100442.28;5126635;28;20024;-67
2022/08/28 00:38:25;;;;;;;0.30;0.30;;;;;;;16.91;80.23;100442.38;5126433;28;20026;-68
2022/08/28 00:40:52;;;;;;;0.30;0.30;;;;;;;16.89;80.45;100441.56;5126704;28;20023;-67
2022/08/28 00:43:36;;;;;;;0.28;0.28;;;;;;;16.87;80.65;100438.16;5126168;28;20020;-68
2022/08/28 00:46:05;;;;;;;0.30;0.30;;;;;;;16.86;81.02;100447.78;5126271;28;20058;-66
2022/08/28 00:48:31;;;;;;;0.30;0.30;;;;;;;16.81;80.93;100441.81;5126328;28;20024;-67
2022/08/28 00:53:41;;;;;;;1.50;1.13;;;;;;;16.80;81.63;100443.63;5126385;28;20018;-67
2022/08/28 00:56:10;;;;;;;0.20;0.20;;;;;;;16.79;81.91;100443.66;5126303;28;20339;-67
2022/08/28 00:58:37;;;;;;;0.30;0.30;;;;;;;16.80;81.97;100440.13;5126224;28;20024;-66
2022/08/28 01:01:03;;;;;;;0.30;0.30;;;;;;;16.80;82.44;100445.38;5126114;28;20529;-67
2022/08/28 01:03:28;;;;;;;0.20;0.20;;;;;;;16.79;82.73;100444.50;5125741;28;20035;-66
2022/08/28 01:05:54;;;;;;;2.17;0.70;;;;;;;16.81;82.61;100437.44;5125964;28;20027;-66
2022/08/28 01:08:19;;;;;;;0.30;0.30;;;;;;;16.80;82.73;100443.63;5126107;28;20031;-67
2022/08/28 01:10:50;;;;;;;0.30;0.30;;;;;;;16.85;82.56;100443.47;5107646;28;20023;-66
2022/08/28 01:13:16;;;;;;;0.30;0.30;;;;;;;16.78;82.36;100434.06;5125981;28;20119;-66
2022/08/28 01:15:43;;;;;;;0.60;0.60;;;;;;;16.87;82.38;100439.00;5125898;28;20027;-66
2022/08/28 01:18:14;;;;;;;0.40;0.40;;;;;;;16.91;82.50;100451.09;5126191;28;20088;-66
2022/08/28 01:20:58;;;;;;;0.40;0.40;;;;;;;16.91;82.51;100443.25;5125808;28;20024;-66
2022/08/28 01:23:50;;;;;;;0.22;0.22;;;;;;;16.87;82.44;100448.66;5125617;28;20759;-66
2022/08/28 01:26:16;;;;;;;0.20;0.20;;;;;;;16.81;83.02;100442.69;5125981;28;20057;-66
2022/08/28 01:28:42;;;;;;;0.30;0.30;;;;;;;16.77;82.85;100438.47;5125875;28;20038;-65
2022/08/28 01:31:10;;;;;;;0.30;0.30;;;;;;;16.83;82.81;100447.88;5125818;28;20051;-66
2022/08/28 01:33:36;;;;;;;0.30;0.30;;;;;;;16.82;82.55;100457.50;5125408;28;20258;-66
2022/08/28 01:36:02;;;;;;;0.22;0.22;;;;;;;16.79;82.55;100444.50;5125737;28;20497;-65
2022/08/28 01:38:27;;;;;;;1.30;1.20;;;;;;;16.79;82.58;100447.13;5107220;28;20051;-66
2022/08/28 01:40:53;;;;;;;1.00;1.00;;;;;;;16.71;82.59;100446.53;5125842;28;20083;-66
2022/08/28 01:43:23;;;;;;;0.30;0.30;;;;;;;16.65;83.07;100444.09;5125491;28;20083;-66
2022/08/28 01:45:52;;;;;;;0.55;0.55;;;;;;;16.63;82.77;100440.69;5125277;28;20122;-67
2022/08/28 01:48:19;;;;;;;0.50;0.50;;;;;;;16.60;83.03;100450.38;5125553;28;20031;-64
2022/08/28 01:50:45;;;;;;;0.30;0.30;;;;;;;16.60;83.13;100442.50;5125686;28;20087;-65
2022/08/28 01:53:14;;;;;;;0.30;0.30;;;;;;;16.61;83.47;100448.63;5125456;28;20020;-65
2022/08/28 01:55:41;;;;;;;0.40;0.40;;;;;;;16.64;82.89;100445.88;5125763;28;20069;-65
2022/08/28 01:58:07;;;;;;;3.42;0.75;;;;;;;16.65;83.00;100446.72;5125644;28;20026;-66
2022/08/28 02:00:33;;;;;;;0.40;0.40;;;;;;;16.70;83.22;100450.94;5125538;28;20036;-66
2022/08/28 02:02:59;;;;;;;0.30;0.30;;;;;;;16.68;83.23;100439.63;5125371;28;20111;-66
2022/08/28 02:05:29;;;;;;;0.30;0.30;;;;;;;16.76;83.14;100449.84;5125269;28;20041;-66
2022/08/28 02:07:56;;;;;;;0.30;0.30;;;;;;;16.76;82.88;100446.41;5125514;28;20024;-66
2022/08/28 02:10:24;;;;;;;0.22;0.22;;;;;;;16.74;83.03;100446.44;5125911;28;20020;-66
2022/08/28 02:12:52;;;;;;;1.08;1.08;;;;;;;16.71;83.29;100441.28;5129568;28;20076;-65
2022/08/28 02:15:18;;;;;;;0.70;0.70;;;;;;;16.70;83.03;100445.69;5129065;28;20485;-66
2022/08/28 02:17:43;;;;;;;0.40;0.40;;;;;;;16.69;83.37;100448.34;5129242;28;20051;-66
2022/08/28 02:20:09;;;;;;;0.28;0.28;;;;;;;16.72;83.27;100445.63;5129100;28;20152;-66
2022/08/28 02:22:34;;;;;;;0.20;0.20;;;;;;;16.71;83.56;100442.16;5129289;28;20467;-66
2022/08/28 02:25:00;;;;;;;1.75;1.30;;;;;;;16.72;83.55;100443.00;5129182;28;20019;-66
2022/08/28 02:27:25;;;;;;;0.30;0.30;;;;;;;16.71;83.55;100441.28;5129102;28;20063;-67
2022/08/28 02:29:50;;;;;;;0.25;0.25;;;;;;;16.73;83.50;100442.09;5129168;28;20024;-67
2022/08/28 02:32:17;;;;;;;0.30;0.30;;;;;;;16.72;83.44;100430.75;5129194;28;20087;-66
2022/08/28 02:34:43;;;;;;;3.45;2.40;;;;;;;16.73;83.68;100439.47;5128642;28;20107;-67
2022/08/28 02:37:12;;;;;;;0.30;0.30;;;;;;;16.70;83.79;100442.19;5128684;28;20028;-66
2022/08/28 02:39:38;;;;;;;0.30;0.30;;;;;;;16.72;83.36;100437.78;5110423;28;20015;-65
2022/08/28 02:42:03;;;;;;;0.20;0.20;;;;;;;16.71;83.63;100436.03;5128718;28;20077;-66
2022/08/28 02:44:29;;;;;;;0.30;0.30;;;;;;;16.64;83.46;100434.53;5128411;28;20028;-66
2022/08/28 02:46:54;;;;;;;0.30;0.30;;;;;;;16.67;83.38;100439.69;5128824;28;20028;-66
2022/08/28 02:49:21;;;;;;;0.20;0.20;;;;;;;16.64;83.71;100442.41;5128344;28;20035;-66
2022/08/28 02:51:47;;;;;;;0.30;0.30;;;;;;;16.63;83.78;100432.84;5110752;28;20027;-65
2022/08/28 02:54:12;;;;;;;0.40;0.40;;;;;;;16.63;83.84;100435.47;5110064;28;20036;-65
2022/08/28 02:56:37;;;;;;;0.20;0.20;;;;;;;16.60;84.37;100431.16;5128366;28;20024;-65
2022/08/28 02:59:03;;;;;;;1.05;1.05;;;;;;;16.64;84.29;100429.31;5128457;28;20023;-65
2022/08/28 03:01:28;;;;;;;0.30;0.30;;;;;;;16.65;84.14;100428.38;5128344;28;20020;-65
2022/08/28 03:03:54;;;;;;;0.25;0.25;;;;;;;16.67;84.36;100426.56;5109731;28;20022;-65
2022/08/28 03:06:21;;;;;;;0.30;0.30;;;;;;;16.68;84.26;100428.28;5128418;28;20027;-65
2022/08/28 03:08:47;;;;;;;0.55;0.55;;;;;;;16.70;84.14;100424.72;5110504;28;20024;-65
2022/08/28 03:11:13;;;;;;;0.30;0.30;;;;;;;16.72;84.64;100416.81;5110126;28;20016;-65
2022/08/28 03:13:39;;;;;;;0.35;0.35;;;;;;;16.74;84.43;100425.47;5128301;28;20030;-65
2022/08/28 03:16:05;;;;;;;0.43;0.43;;;;;;;16.79;84.20;100418.28;5128336;28;20026;-65
2022/08/28 03:18:31;;;;;;;0.57;0.57;;;;;;;16.82;84.33;100414.72;5128030;28;20051;-65
2022/08/28 03:20:58;;;;;;;0.70;0.70;;;;;;;16.78;84.83;100403.47;5128095;28;20039;-65
2022/08/28 03:23:26;;;;;;;0.30;0.30;;;;;;;16.77;84.82;100414.88;5126886;28;20407;-65
2022/08/28 03:26:07;;;;;;;0.20;0.20;;;;;;;16.75;85.00;100414.06;5127936;28;20102;-65
2022/08/28 03:28:37;;;;;;;0.30;0.30;;;;;;;16.78;85.04;100415.72;5128092;28;20049;-65
2022/08/28 03:31:04;;;;;;;1.40;1.30;;;;;;;16.81;85.00;100423.47;5128130;28;20031;-66
2022/08/28 03:33:30;;;;;;;0.30;0.30;;;;;;;16.82;84.95;100427.84;5127426;28;20020;-65
2022/08/28 03:35:56;;;;;;;0.20;0.20;;;;;;;16.88;84.92;100424.13;5127964;28;20064;-66
2022/08/28 03:38:21;;;;;;;0.50;0.50;;;;;;;16.92;84.87;100423.09;5127880;28;20102;-65
2022/08/28 03:40:47;;;;;;;0.22;0.22;;;;;;;16.97;84.93;100410.69;5127581;28;20027;-66
2022/08/28 03:43:16;;;;;;;0.20;0.20;;;;;;;16.96;84.86;100414.25;5127447;28;20069;-65
2022/08/28 03:45:56;;;;;;;0.30;0.30;;;;;;;16.93;84.87;100404.69;5127283;28;20047;-65
2022/08/28 03:48:23;;;;;;;0.20;0.20;;;;;;;16.95;85.08;100410.75;5127364;28;20043;-65
2022/08/28 03:50:49;;;;;;;0.30;0.30;;;;;;;16.90;84.83;100401.34;5127406;28;20045;-65
2022/08/28 03:53:14;;;;;;;0.30;0.30;;;;;;;16.90;84.93;100411.84;5127276;28;20104;-65
2022/08/28 03:55:40;;;;;;;0.20;0.20;;;;;;;16.91;85.45;100411.78;5127518;28;20026;-64
2022/08/28 03:58:07;;;;;;;0.52;0.52;;;;;;;16.89;85.19;100407.47;5127309;28;20015;-64
2022/08/28 04:00:33;;;;;;;0.20;0.20;;;;;;;16.87;85.54;100401.44;5127333;28;20047;-64
2022/08/28 04:02:59;;;;;;;0.30;0.30;;;;;;;16.86;85.65;100403.22;5127066;28;20110;-65
2022/08/28 04:05:25;;;;;;;0.68;0.68;;;;;;;16.82;85.33;100391.97;5108402;28;20051;-64
2022/08/28 04:07:51;;;;;;;0.20;0.20;;;;;;;16.81;85.22;100400.75;5127049;28;20039;-65
2022/08/28 04:10:16;;;;;;;0.35;0.35;;;;;;;16.84;85.38;100405.88;5127120;28;20023;-65
2022/08/28 04:12:43;;;;;;;0.70;0.70;;;;;;;16.83;85.55;100401.56;5127168;28;20053;-64
2022/08/28 04:15:09;;;;;;;0.30;0.30;;;;;;;16.80;85.94;100404.28;5126938;28;20028;-65
2022/08/28 04:17:37;;;;;;;0.30;0.30;;;;;;;16.80;86.01;100409.53;5126921;28;20031;-65
2022/08/28 04:20:03;;;;;;;0.28;0.28;;;;;;;16.81;85.75;100411.25;5126812;28;20083;-65
2022/08/28 04:22:29;;;;;;;1.02;1.02;;;;;;;16.76;86.46;100407.06;5126847;28;20050;-65
2022/08/28 04:24:54;;;;;;;0.30;0.30;;;;;;;16.80;86.12;100411.28;5126753;28;20032;-65
2022/08/28 04:27:19;;;;;;;0.25;0.25;;;;;;;16.80;86.25;100420.03;5126841;28;20023;-65
2022/08/28 04:29:45;;;;;;;0.30;0.30;;;;;;;16.81;86.33;100410.38;5126540;28;20015;-65
2022/08/28 04:32:10;;;;;;;0.30;0.30;;;;;;;16.77;86.51;100407.03;5126807;28;20022;-65
2022/08/28 04:34:37;;;;;;;0.93;0.93;;;;;;;16.78;86.58;100411.34;5125918;28;20421;-64
2022/08/28 04:37:02;;;;;;;0.30;0.30;;;;;;;16.79;86.39;100410.41;5126707;28;20439;-65
2022/08/28 04:39:28;;;;;;;0.40;0.40;;;;;;;16.77;86.46;100393.91;5126662;28;20020;-64
2022/08/28 04:41:56;;;;;;;0.20;0.20;;;;;;;16.77;86.67;100409.63;5126511;28;20035;-64
2022/08/28 04:44:21;;;;;;;0.57;0.57;;;;;;;16.77;86.88;100408.78;5126226;28;20157;-68
2022/08/28 04:46:46;;;;;;;0.25;0.25;;;;;;;16.72;86.99;100401.91;5126676;28;20047;-65
2022/08/28 04:49:13;;;;;;;0.20;0.20;;;;;;;16.75;87.13;100400.97;5126136;28;20114;-66
2022/08/28 04:51:40;;;;;;;0.28;0.28;;;;;;;16.78;87.02;100403.47;5126604;28;20035;-65
2022/08/28 04:54:06;;;;;;;0.77;0.77;;;;;;;16.80;87.24;100403.44;5126267;28;20077;-65
2022/08/28 04:56:32;;;;;;;0.43;0.43;;;;;;;16.84;87.61;100387.53;5126301;28;20028;-65
2022/08/28 04:59:00;;;;;;;0.20;0.20;;;;;;;16.89;87.86;100395.22;5126322;28;20076;-65
2022/08/28 05:01:25;;;;;;;0.30;0.30;;;;;;;17.01;88.13;100400.97;5126144;28;20120;-65
2022/08/28 05:03:56;;;;;;;0.20;0.20;;;;;;;17.05;87.88;100395.56;5107488;28;20035;-64
2022/08/28 05:06:21;;;;;;;0.38;0.38;;;;;;;17.03;87.75;100389.50;5126228;28;20024;-64
2022/08/28 05:08:47;;;;;;;0.25;0.25;;;;;;;17.12;87.50;100409.34;5126201;28;20045;-65
2022/08/28 05:11:15;;;;;;;0.30;0.30;;;;;;;17.15;87.62;100408.34;5126099;28;20522;-65
2022/08/28 05:13:41;;;;;;;2.60;1.60;;;;;;;17.10;87.94;100405.91;5126083;28;20030;-65
2022/08/28 05:16:07;;;;;;;0.47;0.47;;;;;;;17.12;87.99;100401.47;5126058;28;20023;-65
2022/08/28 05:18:32;;;;;;;0.55;0.55;;;;;;;17.12;88.01;100411.97;5125986;28;20039;-65
2022/08/28 05:20:57;;;;;;;0.85;0.85;;;;;;;17.11;87.68;100406.78;5126180;28;20016;-65
2022/08/28 05:23:23;;;;;;;0.50;0.50;;;;;;;17.15;87.76;100411.84;5125785;28;20047;-66
2022/08/28 05:25:49;;;;;;;0.20;0.20;;;;;;;17.20;87.44;100409.06;5125843;28;20030;-65
2022/08/28 05:28:18;;;;;;;2.15;2.05;;;;;;;17.22;87.66;100405.47;5125931;28;20031;-65
2022/08/28 05:30:43;;;;;;;0.30;0.30;;;;;;;17.24;87.67;100413.28;5125993;28;20030;-65
2022/08/28 05:33:12;;;;;;;0.20;0.20;;;;;;;17.28;87.61;100414.88;5125940;28;20079;-65
2022/08/28 05:35:40;;;;;;;0.30;0.30;;;;;;;17.31;87.34;100406.03;5106933;28;20024;-66
2022/08/28 05:38:06;;;;;;;0.30;0.30;;;;;;;17.36;87.54;100404.09;5124020;28;20026;-66
2022/08/28 05:40:32;;;;;;;0.30;0.30;;;;;;;17.39;87.43;100405.75;5109029;28;20032;-65
2022/08/28 05:42:57;;;;;;;0.55;0.55;;;;;;;17.44;87.45;100398.56;5124588;28;20024;-66
2022/08/28 05:45:23;;;;;;;0.55;0.55;;;;;;;17.48;87.58;100394.06;5124999;28;20069;-65
2022/08/28 05:47:50;;;;;;;0.20;0.20;;;;;;;17.57;87.44;100409.47;5127651;28;20102;-65
2022/08/28 05:50:16;;;;;;;0.20;0.20;;;;;;;17.68;87.75;100395.94;5125810;28;20016;-65
2022/08/28 05:52:42;;;;;;;3.60;1.05;;;;;;;18.03;88.96;100392.81;5124455;28;20026;-66
2022/08/28 05:55:10;;;;;;;0.30;0.30;;;;;;;18.43;89.35;100393.88;5122888;28;20023;-66
2022/08/28 05:57:37;;;;;;;1.35;1.23;;;;;;;19.06;90.95;100385.94;5119057;28;20028;-66
2022/08/28 06:00:03;;;;;;;0.68;0.68;;;;;;;19.84;90.73;100398.22;5123387;28;20023;-66
2022/08/28 06:02:29;;;;;;;0.20;0.20;;;;;;;20.45;90.25;100395.34;5125737;28;20039;-66
2022/08/28 06:04:54;;;;;;;0.20;0.20;;;;;;;21.12;90.19;100388.47;5123936;28;20020;-66
2022/08/28 06:07:20;;;;;;;0.32;0.32;;;;;;;21.62;86.47;100378.72;5128305;28;20042;-66
2022/08/28 06:09:45;;;;;;;0.57;0.57;;;;;;;21.87;83.15;100392.38;5124423;28;20578;-65
2022/08/28 06:12:12;;;;;;;1.95;1.65;;;;;;;21.91;81.33;100391.25;5123065;28;20016;-66
2022/08/28 06:14:37;;;;;;;0.10;0.10;;;;;;;21.90;79.23;100397.50;5126024;28;20031;-66
2022/08/28 06:17:03;;;;;;;0.20;0.20;;;;;;;21.79;77.67;100391.00;5103725;28;20020;-65
2022/08/28 06:19:33;;;;;;;0.30;0.30;;;;;;;21.91;79.82;100405.34;5122346;28;20024;-67
2022/08/28 06:22:00;;;;;;;0.40;0.40;;;;;;;22.51;79.87;100401.94;5119073;28;20027;-66
2022/08/28 06:24:27;;;;;;;0.20;0.20;;;;;;;23.02;78.52;100406.88;5119764;28;20046;-65
2022/08/28 06:26:53;;;;;;;0.20;0.20;;;;;;;23.69;78.97;100414.34;5122442;28;20035;-67
2022/08/28 06:29:21;;;;;;;0.52;0.52;;;;;;;24.18;73.50;100407.66;5124832;28;20027;-66
2022/08/28 06:31:51;;;;;;;0.20;0.20;;;;;;;24.29;72.32;100409.59;5122585;28;20475;-72
2022/08/28 06:34:17;;;;;;;0.20;0.20;;;;;;;24.54;70.85;100404.47;5119166;28;20035;-71
2022/08/28 06:36:43;;;;;;;0.28;0.28;;;;;;;24.51;68.49;100416.97;5118524;28;20031;-73
2022/08/28 06:39:10;;;;;;;0.15;0.15;;;;;;;24.62;69.55;100412.72;5096330;28;20023;-73
2022/08/28 06:41:39;;;;;;;0.20;0.20;;;;;;;24.43;67.41;100419.28;5103047;28;20069;-72
2022/08/28 06:44:06;;;;;;;0.55;0.55;;;;;;;23.73;66.15;100416.69;5107167;28;20019;-71
2022/08/28 06:46:33;;;;;;;0.20;0.20;;;;;;;23.03;66.37;100421.81;5124446;28;20048;-73
2022/08/28 06:49:00;;;;;;;0.30;0.30;;;;;;;22.49;67.40;100430.31;5120932;28;20193;-73
2022/08/28 06:51:26;;;;;;;1.13;1.10;;;;;;;22.22;67.61;100423.88;5117560;28;20035;-71
2022/08/28 06:53:51;;;;;;;0.20;0.20;;;;;;;21.94;67.80;100425.44;5122987;28;20032;-72
2022/08/28 06:56:19;;;;;;;0.20;0.20;;;;;;;21.77;68.39;100419.31;5119003;28;20020;-71
2022/08/28 06:58:46;;;;;;;0.30;0.30;;;;;;;21.57;68.20;100425.66;5117195;28;20030;-71
2022/08/28 07:01:21;;;;;;;0.30;0.30;;;;;;;21.39;69.04;100430.16;5116429;28;20089;-72
2022/08/28 07:03:48;;;;;;;0.20;0.20;;;;;;;21.20;69.20;100430.31;5113258;28;20024;-73
2022/08/28 07:06:15;;;;;;;0.70;0.70;;;;;;;21.42;69.86;100427.38;5118868;28;20051;-73
2022/08/28 07:08:42;;;;;;;2.38;1.58;;;;;;;21.82;69.86;100428.78;5100005;28;20023;-74
2022/08/28 07:11:10;;;;;;;0.20;0.20;;;;;;;22.13;68.92;100430.53;5118726;28;20019;-72
2022/08/28 07:13:35;;;;;;;0.20;0.20;;;;;;;22.26;68.24;100424.56;5121199;28;20020;-73
2022/08/28 07:16:04;;;;;;;0.20;0.20;;;;;;;22.06;67.68;100425.69;5123503;28;20043;-83
2022/08/28 07:18:29;;;;;;;0.20;0.20;;;;;;;21.83;67.54;100428.69;5121187;28;20035;-80
2022/08/28 07:21:01;;;;;;;0.65;0.65;;;;;;;21.57;67.96;100423.03;5114309;28;20027;-82
2022/08/28 07:23:31;;;;;;;0.32;0.32;;;;;;;21.45;68.38;100440.41;5091873;28;20072;-80
2022/08/28 07:25:57;;;;;;;0.20;0.20;;;;;;;21.33;68.88;100441.91;5115167;28;20020;-80
2022/08/28 07:28:26;;;;;;;0.28;0.28;;;;;;;21.70;70.24;100427.63;5098170;28;20034;-80
2022/08/28 07:31:00;;;;;;;0.28;0.28;;;;;;;22.71;69.04;100440.50;5120516;28;20024;-81
2022/08/28 07:33:27;;;;;;;0.20;0.20;;;;;;;23.75;68.49;100430.66;5095653;28;20031;-82
2022/08/28 07:35:53;;;;;;;0.17;0.17;;;;;;;24.59;67.53;100448.28;5102001;28;20095;-83
2022/08/28 07:38:20;;;;;;;1.00;0.95;;;;;;;25.20;66.80;100438.91;5118055;28;20034;-76
2022/08/28 07:41:02;;;;;;;0.10;0.10;;;;;;;25.91;64.61;100426.00;5125081;28;20435;-84
2022/08/28 07:46:17;;;;;;;1.00;0.80;;;;;;;25.31;58.84;100424.88;5121804;28;20059;-77
2022/08/28 07:48:44;;;;;;;0.38;0.38;;;;;;;24.56;59.63;100437.03;5106293;28;20383;-77
2022/08/28 07:51:09;;;;;;;0.30;0.30;;;;;;;23.72;60.16;100427.38;5115594;28;20058;-72
2022/08/28 07:53:36;;;;;;;0.20;0.20;;;;;;;23.14;61.37;100438.84;5104846;28;20020;-70
2022/08/28 07:56:02;;;;;;;0.13;0.13;;;;;;;22.75;62.20;100439.38;5105189;28;20025;-70
2022/08/28 07:58:30;;;;;;;0.20;0.20;;;;;;;22.51;62.69;100442.47;5120178;27;20036;-71
2022/08/28 08:00:56;;;;;;;0.20;0.20;;;;;;;22.63;62.87;100424.22;5123048;27;20030;-70
2022/08/28 08:03:22;;;;;;;0.20;0.20;;;;;;;22.99;62.48;100441.47;5113112;28;20087;-70
2022/08/28 08:05:56;;;;;;;0.30;0.30;;;;;;;23.39;60.66;100435.56;5113211;28;20044;-71
2022/08/28 08:08:22;;;;;;;0.50;0.50;;;;;;;23.71;59.92;100447.72;5112360;28;20025;-73
2022/08/28 08:11:01;;;;;;;1.10;0.63;;;;;;;24.15;60.06;100442.34;5112463;28;20350;-71
2022/08/28 08:13:28;;;;;;;0.15;0.15;;;;;;;24.45;58.31;100457.19;5116894;28;20024;-70
2022/08/28 08:16:06;;;;;;;0.20;0.20;;;;;;;24.47;58.75;100435.84;5118392;28;20086;-71
2022/08/28 08:18:32;;;;;;;0.10;0.10;;;;;;;24.30;58.54;100448.44;5116339;28;20114;-71
2022/08/28 08:21:08;;;;;;;0.20;0.20;;;;;;;24.20;57.45;100450.84;5115396;28;20047;-72
2022/08/28 08:23:33;;;;;;;0.20;0.20;;;;;;;24.16;58.31;100448.47;5110290;28;20049;-70
2022/08/28 08:26:05;;;;;;;0.43;0.43;;;;;;;24.20;57.36;100440.22;5105861;28;20036;-71
2022/08/28 08:28:33;;;;;;;0.20;0.20;;;;;;;24.11;57.58;100440.81;5117288;28;20015;-71
2022/08/28 08:31:07;;;;;;;0.22;0.22;;;;;;;23.89;57.02;100451.00;5111767;28;20035;-70
2022/08/28 08:36:49;;;;;;;1.33;1.27;;;;;;;23.17;57.15;100465.16;5082962;28;20031;-71
2022/08/28 08:39:14;;;;;;;0.20;0.20;;;;;;;22.92;57.03;100452.53;5051328;28;20056;-69
2022/08/28 08:41:47;;;;;;;0.30;0.30;;;;;;;22.50;58.24;100469.03;5053954;28;20052;-68
2022/08/28 08:44:18;;;;;;;0.13;0.13;;;;;;;22.20;58.52;100462.78;5050347;28;20069;-69
2022/08/28 08:47:31;;;;;;;1.10;0.60;;;;;;;21.82;59.85;100489.56;5052472;28;20044;-72
2022/08/28 08:50:04;;;;;;;0.20;0.20;;;;;;;22.38;59.97;100473.25;5029811;28;20148;-70
2022/08/28 08:52:35;;;;;;;0.20;0.20;;;;;;;23.14;58.72;100475.91;5047781;28;20031;-72
2022/08/28 08:55:33;;;;;;;0.30;0.30;;;;;;;24.07;57.52;100484.38;5050827;28;20032;-73
2022/08/28 08:58:10;;;;;;;0.15;0.15;;;;;;;24.90;56.45;100487.88;5035851;28;20056;-72
2022/08/28 09:00:56;;;;;;;2.92;2.40;;;;;;;24.83;55.40;100483.88;5053810;28;20025;-71
2022/08/28 09:04:00;;;;;;;0.20;0.20;;;;;;;24.45;55.45;100488.16;5039810;28;20213;-72
2022/08/28 09:06:40;;;;;;;0.20;0.20;;;;;;;24.86;55.08;100494.31;5050445;28;20030;-71
2022/08/28 09:09:32;;;;;;;0.10;0.10;;;;;;;25.24;54.58;100477.56;5045056;28;20032;-71
2022/08/28 09:12:00;;;;;;;;;;;;;;;26.04;52.60;100471.19;5046755;28;20101;-72
2022/08/28 09:14:56;;;;;;;0.10;0.10;;;;;;;26.65;51.39;100480.88;5036655;28;19917;-73
2022/08/28 09:17:26;;;;;;;0.40;0.40;;;;;;;27.02;49.63;100473.72;5092116;28;20099;-74
2022/08/28 09:19:52;;;;;;;0.20;0.20;;;;;;;27.01;48.99;100477.38;5112425;28;20499;-73
2022/08/28 09:22:18;;;;;;;0.10;0.10;;;;;;;26.93;49.43;100468.13;5107811;28;20024;-73
2022/08/28 09:24:44;;;;;;;0.10;0.10;;;;;;;26.70;48.70;100478.72;5111234;28;20230;-73
2022/08/28 09:27:32;;;;;;;0.85;0.85;;;;;;;25.58;51.50;100473.50;5107974;28;20008;-72
2022/08/28 09:30:08;;;;;;;0.13;0.13;;;;;;;25.60;52.65;100475.09;5107670;28;20077;-72
2022/08/28 09:32:40;;;;;;;0.20;0.20;;;;;;;25.60;52.42;100469.78;5095626;28;20357;-74
2022/08/28 09:35:24;;;;;;;0.30;0.30;;;;;;;25.02;52.22;100459.63;5089618;28;20028;-73
2022/08/28 09:37:49;;;;;;;0.10;0.10;;;;;;;24.17;53.63;100474.91;5114608;28;20288;-73
2022/08/28 09:40:24;;;;;;;0.20;0.20;;;;;;;23.53;54.83;100468.31;5108863;28;20053;-71
2022/08/28 09:46:19;;;;;;;0.10;0.10;;;;;;;22.80;57.11;100483.22;5109138;28;20195;-70
2022/08/28 09:48:49;;;;;;;0.20;0.20;;;;;;;22.98;58.51;100468.91;5105838;28;20016;-71
2022/08/28 09:51:23;;;;;;;0.20;0.20;;;;;;;23.40;57.79;100484.94;5106629;28;20238;-68
2022/08/28 09:53:52;;;;;;;0.20;0.20;;;;;;;23.74;57.20;100473.19;5108873;28;20114;-69
2022/08/28 09:56:41;;;;;;;0.20;0.20;;;;;;;23.98;56.49;100461.94;5106482;28;20031;-69
2022/08/28 09:59:11;;;;;;;0.20;0.20;;;;;;;23.84;56.37;100465.50;5114093;28;20035;-68
2022/08/28 10:01:52;;;;;;;0.20;0.20;;;;;;;24.31;56.99;100489.09;5092647;28;20540;-70
2022/08/28 10:04:48;;;;;;;0.20;0.20;;;;;;;24.28;56.04;100468.06;5090821;28;20023;-69
2022/08/28 10:07:39;;;;;;;0.10;0.10;;;;;;;24.32;56.92;100473.06;5109104;28;20043;-69
2022/08/28 10:10:08;;;;;;;0.20;0.20;;;;;;;25.41;55.72;100485.31;5110071;28;20024;-70
2022/08/28 10:12:42;;;;;;;0.30;0.30;;;;;;;25.97;53.17;100474.28;5108430;28;20039;-70
2022/08/28 10:15:16;;;;;;;0.20;0.20;;;;;;;26.02;51.94;100475.75;5106815;28;20307;-65
2022/08/28 10:17:50;;;;;;;0.30;0.30;;;;;;;26.64;51.21;100487.19;5109944;28;20084;-72
2022/08/28 10:20:27;;;;;;;0.10;0.10;;;;;;;27.76;51.48;100483.09;5109246;28;20411;-70
2022/08/28 10:23:23;;;;;;;0.20;0.20;;;;;;;28.10;47.69;100455.47;5107382;28;20024;-71
2022/08/28 10:26:25;;;;;;;0.17;0.17;;;;;;;26.43;49.28;100463.88;5109985;28;20041;-70
2022/08/28 10:29:06;;;;;;;0.80;0.60;;;;;;;25.04;51.50;100491.38;5105225;28;20035;-68
2022/08/28 10:31:48;;;;;;;15.88;2.75;;;;;;;24.04;53.91;100487.25;5105332;28;20016;-69
2022/08/28 10:34:16;;;;;;;0.20;0.20;;;;;;;23.30;55.13;100499.69;5114045;28;20406;-70
2022/08/28 10:36:55;;;;;;;0.20;0.20;;;;;;;22.74;56.80;100481.78;5106653;28;20446;-68
2022/08/28 10:39:46;;;;;;;0.20;0.20;;;;;;;22.52;57.92;100504.19;5107085;28;20366;-70
2022/08/28 10:42:13;;;;;;;0.20;0.20;;;;;;;22.60;58.32;100501.13;5111163;28;20031;-69
2022/08/28 10:44:48;;;;;;;0.20;0.20;;;;;;;22.67;58.18;100499.81;5108197;28;20044;-68
2022/08/28 10:47:14;;;;;;;0.20;0.20;;;;;;;22.51;58.38;100489.25;5113431;28;20050;-70
2022/08/28 10:49:50;;;;;;;0.10;0.10;;;;;;;22.29;58.97;100504.56;5112779;28;20373;-68
2022/08/28 10:52:38;;;;;;;0.52;0.52;;;;;;;22.09;59.55;100487.19;5112146;28;20019;-70
2022/08/28 10:55:17;;;;;;;0.20;0.20;;;;;;;22.08;60.17;100496.03;5116813;28;20487;-73
2022/08/28 10:57:48;;;;;;;0.20;0.20;;;;;;;22.15;59.58;100492.13;5118812;28;20325;-70
2022/08/28 11:00:21;;;;;;;0.20;0.20;;;;;;;21.91;60.29;100502.25;5115462;28;20015;-66
2022/08/28 11:02:56;;;;;;;0.20;0.20;;;;;;;21.39;60.99;100451.28;5118177;28;20023;-70
2022/08/28 11:05:27;;;;;;;0.20;0.20;;;;;;;21.47;61.55;100512.47;5114194;28;20027;-69
2022/08/28 11:08:04;;;;;;;0.20;0.20;;;;;;;21.32;62.26;100523.84;5114555;28;20458;-70
2022/08/28 11:10:33;;;;;;;0.20;0.20;;;;;;;21.12;62.97;100518.66;5114107;28;20327;-67
2022/08/28 11:13:05;;;;;;;0.30;0.30;;;;;;;20.90;63.16;100518.84;5112268;28;20247;-68
2022/08/28 11:15:30;;;;;;;;;;;;;;;20.79;63.86;100514.97;5110429;28;20028;-68
2022/08/28 11:18:18;;;;;;;0.20;0.20;;;;;;;20.55;64.81;100517.91;5113613;28;19978;-73
2022/08/28 11:21:13;;;;;;;0.20;0.20;;;;;;;20.33;65.11;100515.44;5067521;28;20272;-70
2022/08/28 11:23:51;;;;;;;0.20;0.20;;;;;;;20.13;65.83;100513.72;5104916;28;20497;-71
2022/08/28 11:26:29;;;;;;;0.20;0.20;;;;;;;20.10;65.78;100519.16;5116371;28;20522;-70
2022/08/28 11:28:54;;;;;;;0.20;0.20;;;;;;;20.12;66.79;100515.53;5106343;28;20056;-69
2022/08/28 11:31:30;;;;;;;0.75;0.75;;;;;;;20.19;66.67;100524.84;5113451;28;20023;-68
2022/08/28 11:33:58;;;;;;;0.20;0.20;;;;;;;20.20;66.80;100515.16;5113833;28;20231;-69
2022/08/28 11:36:31;;;;;;;0.63;0.63;;;;;;;20.34;66.74;100518.91;5112901;28;20031;-70
2022/08/28 11:38:56;;;;;;;0.63;0.63;;;;;;;20.34;66.22;100530.31;5115638;28;20360;-69
2022/08/28 11:41:35;;;;;;;0.35;0.35;;;;;;;20.31;66.45;100527.84;5116839;28;20022;-69
2022/08/28 11:44:12;;;;;;;0.20;0.20;;;;;;;20.27;66.34;100537.66;5098573;28;20055;-70
2022/08/28 11:46:40;;;;;;;0.20;0.20;;;;;;;20.26;66.32;100535.97;5097833;28;20411;-70
2022/08/28 11:49:28;;;;;;;0.20;0.20;;;;;;;20.18;66.77;100535.47;5111440;28;20031;-69
2022/08/28 11:52:41;;;;;;;0.20;0.20;;;;;;;20.16;66.73;100540.81;5114769;28;20335;-68